Time;durP1;ratioP1;P1;durP2;ratioP2;P2;SDS_P1;SDS_P2;PMS_P1;PMS_P2;Temp;Humidity;BMP_temperature;BMP_pressure;BME280_temperature;BME280_humidity;BME280_pressure;Samples;Min_cycle;Max_cycle;Signal;HPM_P1;HPM_P2
2022/03/28 00:01:09;;;;;;;19.33;9.43;;;;;;;;;;5002305;28;20090;-72
2022/03/28 00:03:35;;;;;;;20.38;8.82;;;;;;;;;;4995655;28;20049;-72
2022/03/28 00:06:01;;;;;;;20.42;9.90;;;;;;;;;;5005555;28;20065;-73
2022/03/28 00:08:27;;;;;;;22.02;10.15;;;;;;;;;;5002330;28;20061;-72
2022/03/28 00:10:53;;;;;;;23.30;9.82;;;;;;;;;;5007160;28;20415;-72
2022/03/28 00:13:18;;;;;;;21.38;9.02;;;;;;;;;;5002128;28;20075;-72
2022/03/28 00:15:43;;;;;;;24.63;8.90;;;;;;;;;;5003167;28;20034;-73
2022/03/28 00:18:10;;;;;;;24.27;10.43;;;;;;;;;;5007026;28;20038;-73
2022/03/28 00:20:36;;;;;;;30.17;11.02;;;;;;;;;;5007376;28;20018;-72
2022/03/28 00:23:01;;;;;;;23.98;10.55;;;;;;;;;;5006414;28;20048;-73
2022/03/28 00:25:27;;;;;;;28.27;11.35;;;;;;;;;;5006444;28;20128;-73
2022/03/28 00:27:52;;;;;;;33.65;12.43;;;;;;;;;;5005352;28;20125;-73
2022/03/28 00:30:18;;;;;;;35.78;12.85;;;;;;;;;;5006694;28;20392;-73
2022/03/28 00:32:43;;;;;;;33.05;11.70;;;;;;;;;;5004958;28;20038;-73
2022/03/28 00:35:09;;;;;;;35.55;12.20;;;;;;;;;;5005270;28;20117;-73
2022/03/28 00:37:37;;;;;;;26.10;11.02;;;;;;;;;;5004786;28;20050;-73
2022/03/28 00:40:03;;;;;;;27.67;10.98;;;;;;;;;;5010496;28;20038;-73
2022/03/28 00:42:29;;;;;;;24.63;10.02;;;;;;;;;;5010525;28;20049;-73
2022/03/28 00:44:54;;;;;;;24.27;10.38;;;;;;;;;;5010710;28;20403;-73
2022/03/28 00:47:19;;;;;;;24.27;10.18;;;;;;;;;;5010177;28;20571;-73
2022/03/28 00:49:45;;;;;;;21.42;10.65;;;;;;;;;;4995434;28;20125;-73
2022/03/28 00:52:10;;;;;;;26.73;11.35;;;;;;;;;;5003881;28;20060;-72
2022/03/28 00:54:36;;;;;;;25.63;10.32;;;;;;;;;;5014330;28;20038;-73
2022/03/28 00:57:02;;;;;;;23.02;10.48;;;;;;;;;;5004614;28;20034;-73
2022/03/28 00:59:32;;;;;;;25.83;10.55;;;;;;;;;;5005360;28;20026;-72
2022/03/28 01:01:58;;;;;;;29.05;10.73;;;;;;;;;;5010598;28;20485;-73
2022/03/28 01:04:23;;;;;;;28.00;10.27;;;;;;;;;;5010280;28;20452;-73
2022/03/28 01:06:48;;;;;;;23.80;10.25;;;;;;;;;;5009733;28;20041;-72
2022/03/28 01:09:14;;;;;;;24.77;10.43;;;;;;;;;;5010312;28;20057;-73
2022/03/28 01:11:42;;;;;;;24.65;10.85;;;;;;;;;;5005540;28;20096;-73
2022/03/28 01:14:07;;;;;;;27.17;10.30;;;;;;;;;;5001725;28;20049;-73
2022/03/28 01:19:17;;;;;;;26.52;9.85;;;;;;;;;;5014356;28;20092;-72
2022/03/28 01:21:43;;;;;;;23.73;10.48;;;;;;;;;;5015568;28;20029;-72
2022/03/28 01:24:08;;;;;;;21.70;10.07;;;;;;;;;;5005154;28;20038;-72
2022/03/28 01:26:34;;;;;;;27.70;10.45;;;;;;;;;;5010469;28;20079;-72
2022/03/28 01:29:00;;;;;;;27.92;10.40;;;;;;;;;;5010169;28;20419;-73
2022/03/28 01:31:26;;;;;;;23.80;10.20;;;;;;;;;;5008409;28;20400;-72
2022/03/28 01:33:51;;;;;;;25.63;10.48;;;;;;;;;;5020105;28;20534;-72
2022/03/28 01:36:23;;;;;;;24.42;9.93;;;;;;;;;;5013114;28;20041;-73
2022/03/28 01:38:48;;;;;;;22.73;9.30;;;;;;;;;;5015062;28;20037;-72
2022/03/28 01:41:13;;;;;;;24.52;10.05;;;;;;;;;;5004548;28;20029;-72
2022/03/28 01:43:39;;;;;;;27.75;10.38;;;;;;;;;;4993292;28;20082;-72
2022/03/28 01:46:04;;;;;;;21.95;9.32;;;;;;;;;;5009552;28;20084;-72
2022/03/28 01:48:29;;;;;;;24.38;9.48;;;;;;;;;;5006615;28;20040;-73
2022/03/28 01:50:55;;;;;;;24.23;10.05;;;;;;;;;;5004476;28;20030;-72
2022/03/28 01:53:20;;;;;;;26.10;9.93;;;;;;;;;;5011631;28;20033;-72
2022/03/28 01:55:45;;;;;;;20.63;9.27;;;;;;;;;;5006405;28;20045;-72
2022/03/28 01:58:11;;;;;;;23.95;9.90;;;;;;;;;;5007580;28;20069;-73
2022/03/28 02:00:36;;;;;;;23.20;9.98;;;;;;;;;;4989988;28;20035;-72
2022/03/28 02:03:02;;;;;;;19.92;8.98;;;;;;;;;;5008085;28;20069;-72
2022/03/28 02:05:27;;;;;;;23.63;9.32;;;;;;;;;;5007678;28;20022;-72
2022/03/28 02:07:53;;;;;;;30.00;10.32;;;;;;;;;;5008146;28;20030;-73
2022/03/28 02:10:20;;;;;;;19.02;9.00;;;;;;;;;;5003306;28;20149;-73
2022/03/28 02:12:46;;;;;;;20.27;9.63;;;;;;;;;;5009755;28;20042;-73
2022/03/28 02:15:12;;;;;;;23.00;9.68;;;;;;;;;;5010901;28;20041;-73
2022/03/28 02:17:39;;;;;;;24.55;10.65;;;;;;;;;;5010005;28;20038;-73
2022/03/28 02:20:06;;;;;;;26.92;10.15;;;;;;;;;;5009522;28;20431;-73
2022/03/28 02:22:33;;;;;;;21.88;9.77;;;;;;;;;;5010421;28;20041;-73
2022/03/28 02:24:58;;;;;;;25.52;10.45;;;;;;;;;;5000251;28;20132;-73
2022/03/28 02:27:23;;;;;;;23.35;9.38;;;;;;;;;;5017590;28;20145;-73
2022/03/28 02:29:49;;;;;;;23.70;9.43;;;;;;;;;;5013382;28;20071;-73
2022/03/28 02:32:14;;;;;;;24.55;9.30;;;;;;;;;;5009621;28;20048;-73
2022/03/28 02:34:40;;;;;;;22.02;9.70;;;;;;;;;;5010672;28;20520;-72
2022/03/28 02:37:05;;;;;;;21.02;8.65;;;;;;;;;;5003502;28;20412;-72
2022/03/28 02:39:31;;;;;;;23.40;9.05;;;;;;;;;;5010091;28;20523;-72
2022/03/28 02:41:56;;;;;;;20.52;8.32;;;;;;;;;;5008552;28;20108;-72
2022/03/28 02:44:21;;;;;;;22.75;9.27;;;;;;;;;;5010647;28;20101;-73
2022/03/28 02:46:47;;;;;;;19.80;8.10;;;;;;;;;;5000708;28;20037;-72
2022/03/28 02:49:13;;;;;;;21.88;9.18;;;;;;;;;;5009847;28;20034;-72
2022/03/28 02:51:39;;;;;;;19.08;8.80;;;;;;;;;;5010173;28;20042;-72
2022/03/28 02:54:05;;;;;;;24.35;9.18;;;;;;;;;;5012368;28;20085;-72
2022/03/28 02:56:30;;;;;;;20.75;9.57;;;;;;;;;;5009938;28;20534;-72
2022/03/28 02:58:56;;;;;;;23.80;9.57;;;;;;;;;;5009785;28;20034;-71
2022/03/28 03:01:21;;;;;;;21.50;8.85;;;;;;;;;;5009325;28;20172;-72
2022/03/28 03:03:46;;;;;;;22.50;9.63;;;;;;;;;;5006582;28;20141;-72
2022/03/28 03:06:11;;;;;;;28.67;10.45;;;;;;;;;;5007321;28;20045;-72
2022/03/28 03:08:37;;;;;;;27.10;9.75;;;;;;;;;;5001898;28;20407;-72
2022/03/28 03:11:02;;;;;;;22.92;8.80;;;;;;;;;;5009361;28;20041;-72
2022/03/28 03:13:27;;;;;;;22.80;9.43;;;;;;;;;;5009481;28;20037;-72
2022/03/28 03:15:53;;;;;;;24.08;9.98;;;;;;;;;;5008028;28;20045;-72
2022/03/28 03:18:18;;;;;;;24.40;9.65;;;;;;;;;;5008159;28;20045;-72
2022/03/28 03:20:43;;;;;;;23.30;9.60;;;;;;;;;;5008725;28;20097;-72
2022/03/28 03:23:09;;;;;;;23.02;8.18;;;;;;;;;;5008182;28;20053;-72
2022/03/28 03:25:35;;;;;;;22.52;9.38;;;;;;;;;;5007389;28;20409;-72
2022/03/28 03:28:01;;;;;;;23.48;9.93;;;;;;;;;;5009045;28;20062;-72
2022/03/28 03:30:26;;;;;;;28.05;9.35;;;;;;;;;;5011342;28;20103;-73
2022/03/28 03:32:51;;;;;;;21.67;9.93;;;;;;;;;;5009128;28;20030;-72
2022/03/28 03:35:17;;;;;;;22.77;9.48;;;;;;;;;;5018494;28;20092;-72
2022/03/28 03:37:42;;;;;;;27.23;10.27;;;;;;;;;;5016264;28;20030;-73
2022/03/28 03:40:10;;;;;;;25.35;9.88;;;;;;;;;;5008623;28;20034;-72
2022/03/28 03:42:35;;;;;;;23.23;8.98;;;;;;;;;;5008903;28;20600;-72
2022/03/28 03:45:01;;;;;;;24.55;9.30;;;;;;;;;;5009235;28;20028;-72
2022/03/28 03:47:26;;;;;;;23.42;8.80;;;;;;;;;;5010601;28;20022;-72
2022/03/28 03:49:52;;;;;;;25.60;9.52;;;;;;;;;;5003040;28;20030;-73
2022/03/28 03:52:17;;;;;;;20.52;8.93;;;;;;;;;;4997071;28;20038;-72
2022/03/28 03:54:42;;;;;;;20.17;9.30;;;;;;;;;;4983603;28;20027;-72
2022/03/28 03:57:08;;;;;;;22.83;9.52;;;;;;;;;;4984626;28;20168;-72
2022/03/28 03:59:33;;;;;;;25.08;10.70;;;;;;;;;;4981074;28;20113;-72
2022/03/28 04:01:59;;;;;;;26.83;9.90;;;;;;;;;;4973810;28;20411;-72
2022/03/28 04:04:24;;;;;;;19.15;8.80;;;;;;;;;;4971700;28;20630;-73
2022/03/28 04:06:50;;;;;;;21.90;9.48;;;;;;;;;;4979784;28;20034;-72
2022/03/28 04:09:15;;;;;;;23.60;8.82;;;;;;;;;;4982151;28;20041;-72
2022/03/28 04:11:41;;;;;;;23.50;9.70;;;;;;;;;;4988302;28;20038;-73
2022/03/28 04:14:07;;;;;;;26.98;10.57;;;;;;;;;;4988026;28;20569;-72
2022/03/28 04:16:33;;;;;;;28.23;11.13;;;;;;;;;;4987538;28;20041;-73
2022/03/28 04:18:58;;;;;;;31.17;12.50;;;;;;;;;;4983872;28;20027;-72
2022/03/28 04:21:24;;;;;;;28.40;11.93;;;;;;;;;;4983329;28;20034;-73
2022/03/28 04:23:49;;;;;;;32.55;12.73;;;;;;;;;;4984462;28;20038;-73
2022/03/28 04:26:14;;;;;;;26.08;10.65;;;;;;;;;;4986322;28;20565;-72
2022/03/28 04:28:40;;;;;;;29.70;11.30;;;;;;;;;;4988084;28;20129;-72
2022/03/28 04:31:05;;;;;;;24.88;10.20;;;;;;;;;;4980141;28;20038;-72
2022/03/28 04:33:31;;;;;;;23.77;10.07;;;;;;;;;;4983287;28;20050;-72
2022/03/28 04:35:56;;;;;;;22.08;9.05;;;;;;;;;;4984365;28;20678;-72
2022/03/28 04:38:24;;;;;;;26.27;9.70;;;;;;;;;;4987915;28;20562;-72
2022/03/28 04:40:50;;;;;;;20.75;9.25;;;;;;;;;;4988452;28;20093;-72
2022/03/28 04:43:15;;;;;;;24.15;9.77;;;;;;;;;;4987292;28;20042;-72
2022/03/28 04:45:40;;;;;;;29.88;10.52;;;;;;;;;;4996741;28;20045;-73
2022/03/28 04:48:06;;;;;;;25.58;9.40;;;;;;;;;;5007470;28;20040;-72
2022/03/28 04:50:31;;;;;;;22.17;9.75;;;;;;;;;;5016574;28;20025;-72
2022/03/28 04:52:57;;;;;;;27.60;11.55;;;;;;;;;;5005833;28;20492;-72
2022/03/28 04:55:22;;;;;;;33.83;11.50;;;;;;;;;;5006473;28;20038;-72
2022/03/28 04:57:47;;;;;;;30.50;11.43;;;;;;;;;;5006645;28;20045;-72
2022/03/28 05:00:14;;;;;;;34.83;12.85;;;;;;;;;;5006513;28;20064;-73
2022/03/28 05:02:40;;;;;;;30.23;10.15;;;;;;;;;;5008746;28;20054;-72
2022/03/28 05:05:06;;;;;;;30.48;11.02;;;;;;;;;;5006237;28;20045;-72
2022/03/28 05:07:31;;;;;;;33.85;11.95;;;;;;;;;;5008791;28;20052;-72
2022/03/28 05:09:58;;;;;;;52.53;12.15;;;;;;;;;;5009799;28;20578;-72
2022/03/28 05:12:24;;;;;;;38.45;11.68;;;;;;;;;;5011493;28;20048;-72
2022/03/28 05:14:51;;;;;;;46.80;12.32;;;;;;;;;;5000196;28;20069;-72
2022/03/28 05:17:28;;;;;;;34.42;11.88;;;;;;;;;;4997719;28;20396;-72
2022/03/28 05:19:54;;;;;;;55.45;11.80;;;;;;;;;;4996554;28;20039;-72
2022/03/28 05:22:21;;;;;;;48.55;12.10;;;;;;;;;;4994880;28;20392;-72
2022/03/28 05:24:47;;;;;;;66.40;12.35;;;;;;;;;;5008355;28;20053;-72
2022/03/28 05:27:13;;;;;;;32.45;11.25;;;;;;;;;;5010518;28;20037;-72
2022/03/28 05:29:39;;;;;;;76.40;12.40;;;;;;;;;;5011617;28;20030;-72
2022/03/28 05:32:05;;;;;;;82.88;12.48;;;;;;;;;;5011669;28;20136;-72
2022/03/28 05:34:30;;;;;;;61.90;11.88;;;;;;;;;;5011369;28;20067;-72
2022/03/28 05:37:00;;;;;;;36.88;11.25;;;;;;;;;;5011248;28;20482;-72
2022/03/28 05:39:26;;;;;;;95.25;12.63;;;;;;;;;;5009865;28;20045;-72
2022/03/28 05:41:51;;;;;;;44.75;13.23;;;;;;;;;;5011097;28;20411;-72
2022/03/28 05:44:18;;;;;;;55.92;17.60;;;;;;;;;;5010954;28;20076;-72
2022/03/28 05:46:44;;;;;;;76.15;21.63;;;;;;;;;;5011090;28;20042;-73
2022/03/28 05:49:09;;;;;;;90.65;15.63;;;;;;;;;;4998134;28;20459;-73
2022/03/28 05:51:34;;;;;;;54.88;14.38;;;;;;;;;;4984338;28;20614;-72
2022/03/28 05:54:00;;;;;;;39.55;12.23;;;;;;;;;;4991417;28;20504;-72
2022/03/28 05:56:25;;;;;;;43.00;12.68;;;;;;;;;;4986853;28;20030;-72
2022/03/28 05:58:50;;;;;;;29.90;10.75;;;;;;;;;;4980100;28;20062;-72
2022/03/28 06:01:16;;;;;;;56.78;11.75;;;;;;;;;;4990381;28;20481;-72
2022/03/28 06:03:41;;;;;;;51.28;10.85;;;;;;;;;;4990286;28;20042;-72
2022/03/28 06:06:08;;;;;;;35.58;9.95;;;;;;;;;;4989364;28;20042;-72
2022/03/28 06:08:34;;;;;;;64.93;11.05;;;;;;;;;;4991981;28;20054;-72
2022/03/28 06:11:01;;;;;;;94.75;11.40;;;;;;;;;;4989437;28;20070;-72
2022/03/28 06:13:26;;;;;;;48.60;10.70;;;;;;;;;;4984574;28;20043;-73
2022/03/28 06:15:52;;;;;;;39.30;10.93;;;;;;;;;;4982829;28;20110;-72
2022/03/28 06:18:17;;;;;;;38.90;11.13;;;;;;;;;;4990115;28;20038;-72
2022/03/28 06:20:42;;;;;;;65.25;11.95;;;;;;;;;;4988267;28;20058;-72
2022/03/28 06:23:12;;;;;;;27.63;11.55;;;;;;;;;;4983825;28;20046;-74
2022/03/28 06:25:37;;;;;;;72.22;12.65;;;;;;;;;;4981983;28;20124;-74
2022/03/28 06:28:03;;;;;;;63.67;11.30;;;;;;;;;;4986393;28;20509;-75
2022/03/28 06:30:28;;;;;;;67.30;12.00;;;;;;;;;;4980676;28;20046;-76
2022/03/28 06:32:54;;;;;;;53.97;11.73;;;;;;;;;;4989921;28;20062;-76
2022/03/28 06:35:20;;;;;;;39.53;11.50;;;;;;;;;;4988545;28;20032;-74
2022/03/28 06:37:46;;;;;;;28.25;11.25;;;;;;;;;;4973844;28;20042;-75
2022/03/28 06:40:12;;;;;;;54.03;11.90;;;;;;;;;;4983966;28;20052;-73
2022/03/28 06:42:37;;;;;;;44.33;10.90;;;;;;;;;;4984170;28;20416;-72
2022/03/28 06:45:03;;;;;;;73.18;11.40;;;;;;;;;;4994017;28;20041;-76
2022/03/28 06:47:29;;;;;;;47.97;10.45;;;;;;;;;;4990236;28;20555;-73
2022/03/28 06:49:54;;;;;;;69.53;12.18;;;;;;;;;;4995672;28;20152;-74
2022/03/28 06:52:20;;;;;;;66.78;10.77;;;;;;;;;;4995430;28;20999;-75
2022/03/28 06:54:45;;;;;;;33.00;10.88;;;;;;;;;;5007619;28;20052;-74
2022/03/28 06:57:10;;;;;;;35.05;10.55;;;;;;;;;;4996392;28;20057;-74
2022/03/28 06:59:36;;;;;;;48.67;11.05;;;;;;;;;;5007476;28;20033;-76
2022/03/28 07:02:01;;;;;;;23.52;9.93;;;;;;;;;;5001988;28;20058;-76
2022/03/28 07:04:27;;;;;;;44.05;10.20;;;;;;;;;;5001391;28;20681;-74
2022/03/28 07:06:52;;;;;;;50.17;10.60;;;;;;;;;;5006465;28;20588;-75
2022/03/28 07:09:18;;;;;;;23.73;10.05;;;;;;;;;;5004667;28;20489;-73
2022/03/28 07:11:43;;;;;;;30.58;10.05;;;;;;;;;;5002820;28;20121;-77
2022/03/28 07:14:09;;;;;;;32.20;9.65;;;;;;;;;;5006602;28;20037;-76
2022/03/28 07:16:34;;;;;;;47.60;10.60;;;;;;;;;;5003786;28;20068;-76
2022/03/28 07:19:00;;;;;;;33.97;11.82;;;;;;;;;;4997634;28;20045;-80
2022/03/28 07:21:26;;;;;;;83.03;12.77;;;;;;;;;;4999310;28;20104;-77
2022/03/28 07:23:52;;;;;;;49.08;12.55;;;;;;;;;;5000417;28;20427;-76
2022/03/28 07:26:18;;;;;;;38.00;12.43;;;;;;;;;;4994267;28;20049;-76
2022/03/28 07:28:44;;;;;;;44.33;12.13;;;;;;;;;;4999607;28;20042;-72
2022/03/28 07:31:09;;;;;;;33.05;12.27;;;;;;;;;;5004140;28;20600;-74
2022/03/28 07:33:37;;;;;;;49.45;12.73;;;;;;;;;;5003436;28;20033;-74
2022/03/28 07:36:04;;;;;;;25.08;11.48;;;;;;;;;;4999762;28;20423;-77
2022/03/28 07:38:29;;;;;;;47.67;12.98;;;;;;;;;;4998015;28;20058;-75
2022/03/28 07:40:54;;;;;;;27.23;11.43;;;;;;;;;;5006695;28;20499;-75
2022/03/28 07:43:20;;;;;;;24.20;11.77;;;;;;;;;;5003440;28;20065;-75
2022/03/28 07:45:46;;;;;;;24.02;11.85;;;;;;;;;;5001098;28;20046;-76
2022/03/28 07:48:12;;;;;;;56.65;12.07;;;;;;;;;;5002361;28;20756;-75
2022/03/28 07:50:37;;;;;;;36.60;11.82;;;;;;;;;;5003420;28;20021;-76
2022/03/28 07:53:03;;;;;;;64.75;13.85;;;;;;;;;;5002966;28;20052;-76
2022/03/28 07:55:29;;;;;;;40.83;12.70;;;;;;;;;;5003668;28;20061;-76
2022/03/28 07:57:54;;;;;;;41.05;12.55;;;;;;;;;;5006173;28;20092;-75
2022/03/28 08:00:20;;;;;;;38.25;12.77;;;;;;;;;;5006838;28;20042;-76
2022/03/28 08:02:45;;;;;;;45.33;13.18;;;;;;;;;;5004528;28;20049;-75
2022/03/28 08:05:12;;;;;;;34.47;13.73;;;;;;;;;;5003667;28;20064;-74
2022/03/28 08:07:38;;;;;;;33.35;15.10;;;;;;;;;;5006323;28;20546;-75
2022/03/28 08:10:09;;;;;;;47.05;13.57;;;;;;;;;;5004983;28;20045;-72
2022/03/28 08:12:36;;;;;;;56.65;14.55;;;;;;;;;;4993939;28;20035;-72
2022/03/28 08:15:05;;;;;;;35.13;16.38;;;;;;;;;;4977141;28;20037;-72
2022/03/28 08:17:30;;;;;;;30.88;14.88;;;;;;;;;;4977044;28;20021;-72
2022/03/28 08:19:55;;;;;;;49.47;17.02;;;;;;;;;;4978614;28;20030;-72
2022/03/28 08:22:21;;;;;;;50.03;21.38;;;;;;;;;;4986106;28;20034;-76
2022/03/28 08:24:46;;;;;;;52.22;18.40;;;;;;;;;;4976711;28;20520;-78
2022/03/28 08:27:12;;;;;;;58.30;23.30;;;;;;;;;;4972051;28;20038;-75
2022/03/28 08:29:37;;;;;;;49.58;20.88;;;;;;;;;;4984716;28;20030;-78
2022/03/28 08:32:03;;;;;;;44.15;19.10;;;;;;;;;;4979587;28;20138;-77
2022/03/28 08:34:29;;;;;;;52.17;21.85;;;;;;;;;;4976956;28;20053;-81
2022/03/28 08:36:55;;;;;;;54.50;21.33;;;;;;;;;;4976569;28;20129;-81
2022/03/28 08:39:21;;;;;;;58.30;22.00;;;;;;;;;;4974506;28;20035;-79
2022/03/28 08:41:49;;;;;;;50.10;21.40;;;;;;;;;;4979906;28;20084;-79
2022/03/28 08:44:15;;;;;;;51.65;22.70;;;;;;;;;;4979398;28;20109;-79
2022/03/28 08:46:43;;;;;;;56.15;22.48;;;;;;;;;;4980583;28;20125;-76
2022/03/28 08:49:09;;;;;;;49.72;22.48;;;;;;;;;;4979731;28;20081;-76
2022/03/28 08:51:34;;;;;;;42.20;19.27;;;;;;;;;;4979023;28;20370;-77
2022/03/28 08:54:00;;;;;;;48.70;20.33;;;;;;;;;;4981904;28;20601;-74
2022/03/28 08:56:25;;;;;;;49.47;20.35;;;;;;;;;;5006592;28;21085;-76
2022/03/28 08:58:50;;;;;;;47.60;20.17;;;;;;;;;;5006661;28;20527;-75
2022/03/28 09:01:19;;;;;;;51.85;21.52;;;;;;;;;;4996544;28;20423;-78
2022/03/28 09:03:47;;;;;;;52.28;22.40;;;;;;;;;;4992560;28;20086;-77
2022/03/28 09:06:31;;;;;;;55.08;23.10;;;;;;;;;;5002724;28;20120;-75
2022/03/28 09:09:27;;;;;;;52.30;21.88;;;;;;;;;;5004620;28;20165;-74
2022/03/28 09:11:53;;;;;;;54.53;22.08;;;;;;;;;;4997567;28;20041;-77
2022/03/28 09:14:26;;;;;;;63.92;23.52;;;;;;;;;;5010565;28;20029;-75
2022/03/28 09:17:05;;;;;;;58.75;22.23;;;;;;;;;;5004402;28;20060;-78
2022/03/28 09:19:45;;;;;;;56.40;23.42;;;;;;;;;;5011736;28;20042;-75
2022/03/28 09:22:27;;;;;;;61.25;24.38;;;;;;;;;;5005054;28;20080;-77
2022/03/28 09:24:54;;;;;;;57.78;24.10;;;;;;;;;;5008971;28;20033;-76
2022/03/28 09:27:25;;;;;;;57.10;22.58;;;;;;;;;;5008639;28;20026;-75
2022/03/28 09:30:02;;;;;;;60.45;23.88;;;;;;;;;;5007623;28;20022;-76
2022/03/28 09:32:33;;;;;;;52.78;25.15;;;;;;;;;;5008199;28;20044;-75
2022/03/28 09:35:20;;;;;;;52.75;24.05;;;;;;;;;;5009102;28;20889;-75
2022/03/28 09:38:02;;;;;;;57.35;25.08;;;;;;;;;;5003772;28;20678;-75
2022/03/28 09:40:36;;;;;;;56.22;24.40;;;;;;;;;;4997008;28;20042;-76
2022/03/28 09:43:15;;;;;;;58.05;23.33;;;;;;;;;;4999660;28;20042;-76
2022/03/28 09:45:42;;;;;;;60.97;25.70;;;;;;;;;;5002314;28;20738;-77
2022/03/28 09:48:11;;;;;;;62.63;26.75;;;;;;;;;;5002585;28;20626;-77
2022/03/28 09:50:38;;;;;;;61.15;27.60;;;;;;;;;;5008632;28;20069;-77
2022/03/28 09:53:15;;;;;;;54.58;25.50;;;;;;;;;;5008979;28;20096;-72
2022/03/28 09:55:55;;;;;;;65.90;28.23;;;;;;;;;;5007987;28;20042;-73
2022/03/28 09:58:31;;;;;;;65.10;28.65;;;;;;;;;;4994203;28;20046;-73
2022/03/28 10:00:56;;;;;;;51.63;22.60;;;;;;;;;;5004438;28;20042;-73
2022/03/28 10:03:23;;;;;;;62.33;27.27;;;;;;;;;;5005725;28;20072;-75
2022/03/28 10:05:48;;;;;;;63.20;25.70;;;;;;;;;;5002921;28;20113;-72
2022/03/28 10:08:14;;;;;;;65.53;23.17;;;;;;;;;;4992036;28;20037;-73
2022/03/28 10:10:40;;;;;;;61.35;24.33;;;;;;;;;;4996567;28;20042;-74
2022/03/28 10:13:06;;;;;;;61.22;23.38;;;;;;;;;;5007791;28;20046;-74
2022/03/28 10:15:32;;;;;;;67.80;24.75;;;;;;;;;;5007912;28;20125;-77
2022/03/28 10:17:58;;;;;;;61.38;24.70;;;;;;;;;;5005611;28;20108;-74
2022/03/28 10:20:24;;;;;;;63.55;25.40;;;;;;;;;;4995010;28;20037;-75
2022/03/28 10:22:53;;;;;;;60.15;23.95;;;;;;;;;;5002875;28;20048;-76
2022/03/28 10:25:22;;;;;;;60.80;24.33;;;;;;;;;;5002721;28;20108;-76
2022/03/28 10:27:50;;;;;;;60.88;24.15;;;;;;;;;;4999178;28;20069;-76
2022/03/28 10:30:17;;;;;;;57.63;24.77;;;;;;;;;;4998500;28;20045;-74
2022/03/28 10:32:43;;;;;;;63.63;25.08;;;;;;;;;;5009361;28;20139;-74
2022/03/28 10:35:09;;;;;;;69.40;25.33;;;;;;;;;;5004750;28;20642;-74
2022/03/28 10:37:44;;;;;;;57.63;22.38;;;;;;;;;;5004291;28;20041;-76
2022/03/28 10:40:12;;;;;;;59.72;23.48;;;;;;;;;;5008527;28;20038;-75
2022/03/28 10:42:38;;;;;;;64.43;23.38;;;;;;;;;;4999780;28;20807;-74
2022/03/28 10:45:10;;;;;;;60.25;23.75;;;;;;;;;;5007859;28;20021;-73
2022/03/28 10:47:56;;;;;;;63.15;23.60;;;;;;;;;;5000693;28;20030;-72
2022/03/28 10:50:31;;;;;;;58.00;22.08;;;;;;;;;;5003201;28;20038;-73
2022/03/28 10:53:08;;;;;;;63.38;24.75;;;;;;;;;;5005787;28;20084;-73
2022/03/28 10:55:37;;;;;;;68.07;24.02;;;;;;;;;;4998662;28;21327;-73
2022/03/28 10:58:15;;;;;;;57.10;21.42;;;;;;;;;;5000851;28;20045;-73
2022/03/28 11:01:05;;;;;;;61.67;22.17;;;;;;;;;;5003680;28;20479;-73
2022/03/28 11:03:40;;;;;;;61.88;21.63;;;;;;;;;;5005153;28;20042;-72
2022/03/28 11:06:06;;;;;;;49.72;20.38;;;;;;;;;;5008037;28;20041;-72
2022/03/28 11:08:36;;;;;;;58.25;22.83;;;;;;;;;;5000264;28;20088;-73
2022/03/28 11:11:24;;;;;;;55.85;22.83;;;;;;;;;;5001461;28;20065;-72
2022/03/28 11:14:10;;;;;;;51.78;19.63;;;;;;;;;;5002819;28;20074;-72
2022/03/28 11:16:43;;;;;;;51.40;20.30;;;;;;;;;;5002400;28;20152;-72
2022/03/28 11:19:29;;;;;;;56.53;20.35;;;;;;;;;;4999418;28;20066;-73
2022/03/28 11:22:03;;;;;;;49.30;19.27;;;;;;;;;;5004703;28;20092;-72
2022/03/28 11:24:58;;;;;;;51.65;18.70;;;;;;;;;;5005615;28;20128;-73
2022/03/28 11:27:28;;;;;;;41.35;15.63;;;;;;;;;;5005731;28;20053;-70
2022/03/28 11:30:03;;;;;;;47.05;17.58;;;;;;;;;;5005544;28;20033;-70
2022/03/28 11:32:31;;;;;;;51.42;18.10;;;;;;;;;;5001440;28;20081;-70
2022/03/28 11:34:57;;;;;;;53.30;19.63;;;;;;;;;;5002763;28;20910;-70
2022/03/28 11:37:25;;;;;;;50.25;20.52;;;;;;;;;;5003142;28;20033;-70
2022/03/28 11:40:02;;;;;;;50.20;19.80;;;;;;;;;;4992550;28;20042;-71
2022/03/28 11:42:32;;;;;;;52.97;19.30;;;;;;;;;;4997775;28;20531;-73
2022/03/28 11:45:08;;;;;;;51.30;20.17;;;;;;;;;;5008349;28;20029;-71
2022/03/28 11:47:35;;;;;;;53.60;21.48;;;;;;;;;;4999282;28;20084;-73
2022/03/28 11:50:04;;;;;;;46.38;18.65;;;;;;;;;;5000966;28;20033;-72
2022/03/28 11:52:31;;;;;;;41.88;17.05;;;;;;;;;;4999271;28;20164;-71
2022/03/28 11:54:58;;;;;;;41.65;17.70;;;;;;;;;;4998598;28;20069;-72
2022/03/28 12:00:26;;;;;;;44.83;18.10;;;;;;;;;;4999620;28;20053;-74
2022/03/28 12:02:53;;;;;;;42.85;17.15;;;;;;;;;;4995509;28;20565;-73
2022/03/28 12:05:34;;;;;;;42.40;16.58;;;;;;;;;;4994620;28;20042;-73
2022/03/28 12:08:06;;;;;;;47.08;17.08;;;;;;;;;;4995669;28;20539;-73
2022/03/28 12:10:37;;;;;;;37.38;16.08;;;;;;;;;;4994327;28;20042;-73
2022/03/28 12:13:05;;;;;;;41.95;15.40;;;;;;;;;;4996224;28;20065;-72
2022/03/28 12:15:51;;;;;;;40.95;16.55;;;;;;;;;;4983262;28;20130;-72
2022/03/28 12:18:20;;;;;;;45.78;18.63;;;;;;;;;;4995944;28;20029;-72
2022/03/28 12:20:48;;;;;;;42.67;17.75;;;;;;;;;;4999564;28;20156;-73
2022/03/28 12:23:15;;;;;;;43.03;17.20;;;;;;;;;;5000861;28;20132;-74
2022/03/28 12:25:45;;;;;;;40.03;17.85;;;;;;;;;;5007330;28;20096;-73
2022/03/28 12:28:25;;;;;;;42.10;17.17;;;;;;;;;;5002796;28;20038;-73
2022/03/28 12:30:55;;;;;;;43.17;16.85;;;;;;;;;;5001935;28;20644;-74
2022/03/28 12:33:29;;;;;;;39.67;15.02;;;;;;;;;;4998861;28;20029;-74
2022/03/28 12:35:59;;;;;;;36.20;15.43;;;;;;;;;;4998523;28;20022;-73
2022/03/28 12:38:27;;;;;;;38.95;15.75;;;;;;;;;;5000157;28;20042;-73
2022/03/28 12:40:56;;;;;;;40.55;14.88;;;;;;;;;;5003244;28;20034;-73
2022/03/28 12:43:25;;;;;;;31.20;12.70;;;;;;;;;;4999090;28;20503;-73
2022/03/28 12:45:55;;;;;;;41.60;14.10;;;;;;;;;;5000910;28;20049;-75
2022/03/28 12:48:21;;;;;;;28.27;10.90;;;;;;;;;;4998018;28;20446;-72
2022/03/28 12:50:58;;;;;;;31.33;12.68;;;;;;;;;;5002271;28;20795;-72
2022/03/28 12:53:28;;;;;;;34.05;13.35;;;;;;;;;;5003541;28;20096;-72
2022/03/28 12:56:09;;;;;;;30.98;11.73;;;;;;;;;;4998482;28;20121;-71
2022/03/28 12:58:34;;;;;;;34.60;13.52;;;;;;;;;;4999585;28;20088;-71
2022/03/28 13:01:05;;;;;;;32.35;13.00;;;;;;;;;;4998926;28;20049;-72
2022/03/28 13:03:32;;;;;;;30.45;12.20;;;;;;;;;;5000771;28;20033;-70
2022/03/28 13:06:09;;;;;;;35.25;14.80;;;;;;;;;;4995377;28;20582;-70
2022/03/28 13:08:37;;;;;;;22.60;10.63;;;;;;;;;;4993493;28;20042;-70
2022/03/28 13:11:31;;;;;;;28.92;12.15;;;;;;;;;;4998838;28;20072;-73
2022/03/28 13:13:56;;;;;;;;;;;;;;;;;;4998151;28;20050;-72
2022/03/28 13:16:23;;;;;;;29.15;11.07;;;;;;;;;;4998288;28;19921;-73
2022/03/28 13:19:04;;;;;;;26.48;11.45;;;;;;;;;;5002547;28;20069;-71
2022/03/28 13:21:37;;;;;;;27.40;11.30;;;;;;;;;;5003098;28;20092;-71
2022/03/28 13:24:12;;;;;;;26.60;12.02;;;;;;;;;;5002818;28;20030;-71
2022/03/28 13:26:48;;;;;;;27.70;11.45;;;;;;;;;;5002848;28;20045;-71
2022/03/28 13:29:24;;;;;;;26.17;11.30;;;;;;;;;;4999058;28;20033;-71
2022/03/28 13:31:50;;;;;;;28.02;12.38;;;;;;;;;;4998389;28;20042;-71
2022/03/28 13:34:16;;;;;;;32.05;12.50;;;;;;;;;;5000566;28;20533;-72
2022/03/28 13:36:42;;;;;;;32.08;15.05;;;;;;;;;;5000586;28;20042;-71
2022/03/28 13:39:07;;;;;;;24.95;10.75;;;;;;;;;;4998964;28;20528;-74
2022/03/28 13:41:34;;;;;;;24.48;11.43;;;;;;;;;;5001990;28;20029;-74
2022/03/28 13:44:01;;;;;;;24.17;9.98;;;;;;;;;;5001014;28;20041;-73
2022/03/28 13:46:26;;;;;;;23.80;10.73;;;;;;;;;;5003529;28;21057;-77
2022/03/28 13:48:54;;;;;;;29.88;12.02;;;;;;;;;;5002419;28;20041;-75
2022/03/28 13:51:19;;;;;;;24.95;10.88;;;;;;;;;;5006009;28;20030;-76
2022/03/28 13:53:44;;;;;;;20.50;10.07;;;;;;;;;;5001633;28;20057;-76
2022/03/28 13:56:10;;;;;;;24.90;10.13;;;;;;;;;;5005762;28;20586;-76
2022/03/28 13:58:36;;;;;;;20.58;8.80;;;;;;;;;;5004179;28;20136;-77
2022/03/28 14:01:02;;;;;;;22.23;9.90;;;;;;;;;;5004700;28;20757;-73
2022/03/28 14:03:29;;;;;;;23.65;10.32;;;;;;;;;;5009607;28;20119;-73
2022/03/28 14:05:54;;;;;;;29.13;11.32;;;;;;;;;;5004961;28;20034;-73
2022/03/28 14:08:20;;;;;;;26.45;11.40;;;;;;;;;;5004186;28;20038;-74
2022/03/28 14:10:47;;;;;;;24.05;9.93;;;;;;;;;;5004773;28;20133;-75
2022/03/28 14:13:13;;;;;;;22.33;9.90;;;;;;;;;;5000408;28;20053;-74
2022/03/28 14:15:38;;;;;;;20.77;10.07;;;;;;;;;;4998185;28;20059;-75
2022/03/28 14:18:04;;;;;;;21.88;10.38;;;;;;;;;;5002929;28;20037;-75
2022/03/28 14:20:29;;;;;;;23.27;11.35;;;;;;;;;;5002178;28;20018;-74
2022/03/28 14:22:55;;;;;;;26.23;10.60;;;;;;;;;;5001323;28;20096;-74
2022/03/28 14:25:22;;;;;;;21.92;9.48;;;;;;;;;;5005463;28;20590;-75
2022/03/28 14:27:48;;;;;;;22.00;10.18;;;;;;;;;;5006471;28;20048;-75
2022/03/28 14:30:15;;;;;;;18.00;8.70;;;;;;;;;;5003480;28;20051;-75